sensor_id;sensor_type;location;lat;lon;timestamp;temperature;humidity
37408;DHT22;24866;50.248;8.252;2022-10-31T00:00:35;11.10;99.90
37408;DHT22;24866;50.248;8.252;2022-10-31T00:03:07;11.00;99.90
37408;DHT22;24866;50.248;8.252;2022-10-31T00:05:40;11.10;99.90
37408;DHT22;24866;50.248;8.252;2022-10-31T00:08:11;11.10;99.90
37408;DHT22;24866;50.248;8.252;2022-10-31T00:10:41;11.20;99.90
37408;DHT22;24866;50.248;8.252;2022-10-31T00:13:12;11.40;99.90
37408;DHT22;24866;50.248;8.252;2022-10-31T00:15:42;11.30;99.90
37408;DHT22;24866;50.248;8.252;2022-10-31T00:18:14;11.30;99.90
37408;DHT22;24866;50.248;8.252;2022-10-31T00:20:44;11.20;99.90
37408;DHT22;24866;50.248;8.252;2022-10-31T00:23:14;11.40;99.90
37408;DHT22;24866;50.248;8.252;2022-10-31T00:25:44;11.50;99.90
37408;DHT22;24866;50.248;8.252;2022-10-31T00:28:14;11.50;99.90
37408;DHT22;24866;50.248;8.252;2022-10-31T00:30:44;11.60;99.90
37408;DHT22;24866;50.248;8.252;2022-10-31T00:33:15;11.50;99.90
37408;DHT22;24866;50.248;8.252;2022-10-31T00:35:49;11.50;99.90
37408;DHT22;24866;50.248;8.252;2022-10-31T00:38:19;11.40;99.90
37408;DHT22;24866;50.248;8.252;2022-10-31T00:40:49;11.50;99.90
37408;DHT22;24866;50.248;8.252;2022-10-31T00:43:19;11.40;99.90
37408;DHT22;24866;50.248;8.252;2022-10-31T00:45:49;11.00;99.90
37408;DHT22;24866;50.248;8.252;2022-10-31T00:48:21;10.90;99.90
37408;DHT22;24866;50.248;8.252;2022-10-31T00:50:51;10.70;99.90
37408;DHT22;24866;50.248;8.252;2022-10-31T00:53:21;10.80;99.90
37408;DHT22;24866;50.248;8.252;2022-10-31T00:55:50;10.60;99.90
37408;DHT22;24866;50.248;8.252;2022-10-31T00:58:20;10.70;99.90
37408;DHT22;24866;50.248;8.252;2022-10-31T01:00:51;10.80;99.90
37408;DHT22;24866;50.248;8.252;2022-10-31T01:03:26;10.90;99.90
37408;DHT22;24866;50.248;8.252;2022-10-31T01:05:58;11.00;99.90
37408;DHT22;24866;50.248;8.252;2022-10-31T01:08:28;10.80;99.90
37408;DHT22;24866;50.248;8.252;2022-10-31T01:11:03;10.80;99.90
37408;DHT22;24866;50.248;8.252;2022-10-31T01:13:34;10.60;99.90
37408;DHT22;24866;50.248;8.252;2022-10-31T01:16:06;10.70;99.90
37408;DHT22;24866;50.248;8.252;2022-10-31T01:18:37;10.80;99.90
37408;DHT22;24866;50.248;8.252;2022-10-31T01:21:09;11.00;99.90
37408;DHT22;24866;50.248;8.252;2022-10-31T01:23:39;10.90;99.90
37408;DHT22;24866;50.248;8.252;2022-10-31T01:26:11;10.70;99.90
37408;DHT22;24866;50.248;8.252;2022-10-31T01:28:45;10.70;99.90
37408;DHT22;24866;50.248;8.252;2022-10-31T01:31:16;10.60;99.90
37408;DHT22;24866;50.248;8.252;2022-10-31T01:33:48;10.70;99.90
37408;DHT22;24866;50.248;8.252;2022-10-31T01:36:20;10.80;99.90
37408;DHT22;24866;50.248;8.252;2022-10-31T01:38:51;11.00;99.90
37408;DHT22;24866;50.248;8.252;2022-10-31T01:41:24;11.10;99.90
37408;DHT22;24866;50.248;8.252;2022-10-31T01:43:55;10.80;99.90
37408;DHT22;24866;50.248;8.252;2022-10-31T01:46:29;10.70;99.90
37408;DHT22;24866;50.248;8.252;2022-10-31T01:49:04;10.70;99.90
37408;DHT22;24866;50.248;8.252;2022-10-31T01:51:37;10.70;99.90
37408;DHT22;24866;50.248;8.252;2022-10-31T01:54:12;10.90;99.90
37408;DHT22;24866;50.248;8.252;2022-10-31T01:56:45;10.50;99.90
37408;DHT22;24866;50.248;8.252;2022-10-31T01:59:20;10.70;99.90
37408;DHT22;24866;50.248;8.252;2022-10-31T02:01:50;10.80;99.90
37408;DHT22;24866;50.248;8.252;2022-10-31T02:04:24;10.80;99.90
37408;DHT22;24866;50.248;8.252;2022-10-31T02:06:57;10.90;99.90
37408;DHT22;24866;50.248;8.252;2022-10-31T02:09:29;10.80;99.90
37408;DHT22;24866;50.248;8.252;2022-10-31T02:12:00;10.80;99.90
37408;DHT22;24866;50.248;8.252;2022-10-31T02:14:31;10.80;99.90
37408;DHT22;24866;50.248;8.252;2022-10-31T02:17:01;10.60;99.90
37408;DHT22;24866;50.248;8.252;2022-10-31T02:19:40;10.50;99.90
37408;DHT22;24866;50.248;8.252;2022-10-31T02:22:17;10.50;99.90
37408;DHT22;24866;50.248;8.252;2022-10-31T02:25:08;10.60;99.90
37408;DHT22;24866;50.248;8.252;2022-10-31T02:27:59;10.50;99.90
37408;DHT22;24866;50.248;8.252;2022-10-31T02:30:37;10.40;99.90
37408;DHT22;24866;50.248;8.252;2022-10-31T02:33:20;10.40;99.90
37408;DHT22;24866;50.248;8.252;2022-10-31T02:36:03;10.60;99.90
37408;DHT22;24866;50.248;8.252;2022-10-31T02:38:43;10.90;99.90
37408;DHT22;24866;50.248;8.252;2022-10-31T02:41:19;10.80;99.90
37408;DHT22;24866;50.248;8.252;2022-10-31T02:44:00;10.80;99.90
37408;DHT22;24866;50.248;8.252;2022-10-31T02:46:35;10.80;99.90
37408;DHT22;24866;50.248;8.252;2022-10-31T02:49:14;10.80;99.90
37408;DHT22;24866;50.248;8.252;2022-10-31T02:51:46;10.80;99.90
37408;DHT22;24866;50.248;8.252;2022-10-31T02:54:18;10.90;99.90
37408;DHT22;24866;50.248;8.252;2022-10-31T02:56:49;10.80;99.90
37408;DHT22;24866;50.248;8.252;2022-10-31T02:59:19;10.80;99.90
37408;DHT22;24866;50.248;8.252;2022-10-31T03:02:01;10.70;99.90
37408;DHT22;24866;50.248;8.252;2022-10-31T03:04:52;10.70;99.90
37408;DHT22;24866;50.248;8.252;2022-10-31T03:07:30;10.70;99.90
37408;DHT22;24866;50.248;8.252;2022-10-31T03:10:07;10.70;99.90
37408;DHT22;24866;50.248;8.252;2022-10-31T03:12:47;10.10;99.90
37408;DHT22;24866;50.248;8.252;2022-10-31T03:15:22;10.30;99.90
37408;DHT22;24866;50.248;8.252;2022-10-31T03:17:58;10.30;99.90
37408;DHT22;24866;50.248;8.252;2022-10-31T03:20:34;10.40;99.90
37408;DHT22;24866;50.248;8.252;2022-10-31T03:23:09;10.50;99.90
37408;DHT22;24866;50.248;8.252;2022-10-31T03:25:41;10.40;99.90
37408;DHT22;24866;50.248;8.252;2022-10-31T03:28:13;10.40;99.90
37408;DHT22;24866;50.248;8.252;2022-10-31T03:30:45;10.30;99.90
37408;DHT22;24866;50.248;8.252;2022-10-31T03:33:20;10.20;99.90
37408;DHT22;24866;50.248;8.252;2022-10-31T03:35:54;10.00;99.90
37408;DHT22;24866;50.248;8.252;2022-10-31T03:38:25;10.00;99.90
37408;DHT22;24866;50.248;8.252;2022-10-31T03:40:58;10.30;99.90
37408;DHT22;24866;50.248;8.252;2022-10-31T03:43:33;10.40;99.90
37408;DHT22;24866;50.248;8.252;2022-10-31T03:46:06;10.50;99.90
37408;DHT22;24866;50.248;8.252;2022-10-31T03:48:36;10.40;99.90
37408;DHT22;24866;50.248;8.252;2022-10-31T03:51:12;10.00;99.90
37408;DHT22;24866;50.248;8.252;2022-10-31T03:53:47;10.20;99.90
37408;DHT22;24866;50.248;8.252;2022-10-31T03:56:24;10.30;99.90
37408;DHT22;24866;50.248;8.252;2022-10-31T03:58:59;10.40;99.90
37408;DHT22;24866;50.248;8.252;2022-10-31T04:01:32;10.50;99.90
37408;DHT22;24866;50.248;8.252;2022-10-31T04:04:04;10.40;99.90
37408;DHT22;24866;50.248;8.252;2022-10-31T04:06:37;10.60;99.90
37408;DHT22;24866;50.248;8.252;2022-10-31T04:09:09;10.70;99.90
37408;DHT22;24866;50.248;8.252;2022-10-31T04:11:44;10.70;99.90
37408;DHT22;24866;50.248;8.252;2022-10-31T04:14:15;10.60;99.90
37408;DHT22;24866;50.248;8.252;2022-10-31T04:16:45;10.60;99.90
37408;DHT22;24866;50.248;8.252;2022-10-31T04:19:16;10.40;99.90
37408;DHT22;24866;50.248;8.252;2022-10-31T04:21:47;10.20;99.90
37408;DHT22;24866;50.248;8.252;2022-10-31T04:24:17;10.20;99.90
37408;DHT22;24866;50.248;8.252;2022-10-31T04:26:46;10.00;99.90
37408;DHT22;24866;50.248;8.252;2022-10-31T04:29:16;10.00;99.90
37408;DHT22;24866;50.248;8.252;2022-10-31T04:31:46;10.10;99.90
37408;DHT22;24866;50.248;8.252;2022-10-31T04:34:16;10.00;99.90
37408;DHT22;24866;50.248;8.252;2022-10-31T04:36:48;10.00;99.90
37408;DHT22;24866;50.248;8.252;2022-10-31T04:39:17;10.20;99.90
37408;DHT22;24866;50.248;8.252;2022-10-31T04:41:49;10.40;99.90
37408;DHT22;24866;50.248;8.252;2022-10-31T04:44:18;10.10;99.90
37408;DHT22;24866;50.248;8.252;2022-10-31T04:46:48;10.20;99.90
37408;DHT22;24866;50.248;8.252;2022-10-31T04:49:18;10.20;99.90
37408;DHT22;24866;50.248;8.252;2022-10-31T04:51:49;10.30;99.90
37408;DHT22;24866;50.248;8.252;2022-10-31T04:54:19;10.40;99.90
37408;DHT22;24866;50.248;8.252;2022-10-31T04:56:49;10.10;99.90
37408;DHT22;24866;50.248;8.252;2022-10-31T04:59:19;10.10;99.90
37408;DHT22;24866;50.248;8.252;2022-10-31T05:01:49;9.70;99.90
37408;DHT22;24866;50.248;8.252;2022-10-31T05:04:19;9.60;99.90
37408;DHT22;24866;50.248;8.252;2022-10-31T05:06:50;9.90;99.90
37408;DHT22;24866;50.248;8.252;2022-10-31T05:09:20;10.10;99.90
37408;DHT22;24866;50.248;8.252;2022-10-31T05:11:49;10.20;99.90
37408;DHT22;24866;50.248;8.252;2022-10-31T05:14:19;10.20;99.90
37408;DHT22;24866;50.248;8.252;2022-10-31T05:16:49;10.10;99.90
37408;DHT22;24866;50.248;8.252;2022-10-31T05:19:19;10.20;99.90
37408;DHT22;24866;50.248;8.252;2022-10-31T05:21:50;10.20;99.90
37408;DHT22;24866;50.248;8.252;2022-10-31T05:24:20;10.10;99.90
37408;DHT22;24866;50.248;8.252;2022-10-31T05:26:51;10.20;99.90
37408;DHT22;24866;50.248;8.252;2022-10-31T05:29:20;10.30;99.90
37408;DHT22;24866;50.248;8.252;2022-10-31T05:31:50;10.20;99.90
37408;DHT22;24866;50.248;8.252;2022-10-31T05:34:20;10.10;99.90
37408;DHT22;24866;50.248;8.252;2022-10-31T05:36:51;10.00;99.90
37408;DHT22;24866;50.248;8.252;2022-10-31T05:39:21;10.00;99.90
37408;DHT22;24866;50.248;8.252;2022-10-31T05:41:51;10.00;99.90
37408;DHT22;24866;50.248;8.252;2022-10-31T05:44:21;10.10;99.90
37408;DHT22;24866;50.248;8.252;2022-10-31T05:46:51;9.90;99.90
37408;DHT22;24866;50.248;8.252;2022-10-31T05:49:21;9.90;99.90
37408;DHT22;24866;50.248;8.252;2022-10-31T05:51:52;10.00;99.90
37408;DHT22;24866;50.248;8.252;2022-10-31T05:54:22;9.90;99.90
37408;DHT22;24866;50.248;8.252;2022-10-31T05:56:52;9.90;99.90
37408;DHT22;24866;50.248;8.252;2022-10-31T05:59:22;9.90;99.90
37408;DHT22;24866;50.248;8.252;2022-10-31T06:01:52;10.00;99.90
37408;DHT22;24866;50.248;8.252;2022-10-31T06:04:22;10.00;99.90
37408;DHT22;24866;50.248;8.252;2022-10-31T06:06:53;10.00;99.90
37408;DHT22;24866;50.248;8.252;2022-10-31T06:09:23;10.10;99.90
37408;DHT22;24866;50.248;8.252;2022-10-31T06:11:53;10.00;99.90
37408;DHT22;24866;50.248;8.252;2022-10-31T06:14:23;10.00;99.90
37408;DHT22;24866;50.248;8.252;2022-10-31T06:16:54;10.00;99.90
37408;DHT22;24866;50.248;8.252;2022-10-31T06:19:24;9.80;99.90
37408;DHT22;24866;50.248;8.252;2022-10-31T06:21:55;9.70;99.90
37408;DHT22;24866;50.248;8.252;2022-10-31T06:24:25;9.70;99.90
37408;DHT22;24866;50.248;8.252;2022-10-31T06:26:54;9.90;99.90
37408;DHT22;24866;50.248;8.252;2022-10-31T06:29:24;9.90;99.90
37408;DHT22;24866;50.248;8.252;2022-10-31T06:31:54;9.90;99.90
37408;DHT22;24866;50.248;8.252;2022-10-31T06:34:24;10.00;99.90
37408;DHT22;24866;50.248;8.252;2022-10-31T06:36:55;9.90;99.90
37408;DHT22;24866;50.248;8.252;2022-10-31T06:39:25;10.00;99.90
37408;DHT22;24866;50.248;8.252;2022-10-31T06:41:55;9.90;99.90
37408;DHT22;24866;50.248;8.252;2022-10-31T06:44:25;9.90;99.90
37408;DHT22;24866;50.248;8.252;2022-10-31T06:46:55;10.00;99.90
37408;DHT22;24866;50.248;8.252;2022-10-31T06:49:25;10.00;99.90
37408;DHT22;24866;50.248;8.252;2022-10-31T06:51:56;10.20;99.90
37408;DHT22;24866;50.248;8.252;2022-10-31T06:54:26;10.20;99.90
37408;DHT22;24866;50.248;8.252;2022-10-31T06:56:56;10.20;99.90
37408;DHT22;24866;50.248;8.252;2022-10-31T06:59:26;10.10;99.90
37408;DHT22;24866;50.248;8.252;2022-10-31T07:01:57;10.20;99.90
37408;DHT22;24866;50.248;8.252;2022-10-31T07:04:27;10.20;99.90
37408;DHT22;24866;50.248;8.252;2022-10-31T07:06:58;10.30;99.90
37408;DHT22;24866;50.248;8.252;2022-10-31T07:09:28;10.20;99.90
37408;DHT22;24866;50.248;8.252;2022-10-31T07:11:58;10.30;99.90
37408;DHT22;24866;50.248;8.252;2022-10-31T07:14:28;10.40;99.90
37408;DHT22;24866;50.248;8.252;2022-10-31T07:16:58;10.50;99.90
37408;DHT22;24866;50.248;8.252;2022-10-31T07:19:27;10.60;99.90
37408;DHT22;24866;50.248;8.252;2022-10-31T07:21:59;10.70;99.90
37408;DHT22;24866;50.248;8.252;2022-10-31T07:24:29;10.80;99.90
37408;DHT22;24866;50.248;8.252;2022-10-31T07:26:58;10.80;99.90
37408;DHT22;24866;50.248;8.252;2022-10-31T07:29:28;10.90;99.90
37408;DHT22;24866;50.248;8.252;2022-10-31T07:31:58;11.00;99.90
37408;DHT22;24866;50.248;8.252;2022-10-31T07:34:28;11.10;99.90
37408;DHT22;24866;50.248;8.252;2022-10-31T07:37:00;11.20;99.90
37408;DHT22;24866;50.248;8.252;2022-10-31T07:39:30;11.40;99.90
37408;DHT22;24866;50.248;8.252;2022-10-31T07:41:59;11.40;99.90
37408;DHT22;24866;50.248;8.252;2022-10-31T07:44:29;11.30;99.90
37408;DHT22;24866;50.248;8.252;2022-10-31T07:46:59;11.40;99.90
37408;DHT22;24866;50.248;8.252;2022-10-31T07:49:29;11.50;99.90
37408;DHT22;24866;50.248;8.252;2022-10-31T07:52:00;11.60;99.90
37408;DHT22;24866;50.248;8.252;2022-10-31T07:54:30;11.80;99.90
37408;DHT22;24866;50.248;8.252;2022-10-31T07:57:00;11.60;99.90
37408;DHT22;24866;50.248;8.252;2022-10-31T07:59:30;11.70;99.90
37408;DHT22;24866;50.248;8.252;2022-10-31T08:02:00;11.70;99.90
37408;DHT22;24866;50.248;8.252;2022-10-31T08:04:30;11.70;99.90
37408;DHT22;24866;50.248;8.252;2022-10-31T08:07:01;11.70;99.90
37408;DHT22;24866;50.248;8.252;2022-10-31T08:09:31;12.00;99.90
37408;DHT22;24866;50.248;8.252;2022-10-31T08:12:01;11.80;99.90
37408;DHT22;24866;50.248;8.252;2022-10-31T08:14:31;11.80;99.90
37408;DHT22;24866;50.248;8.252;2022-10-31T08:17:00;11.70;99.90
37408;DHT22;24866;50.248;8.252;2022-10-31T08:19:30;11.70;99.90
37408;DHT22;24866;50.248;8.252;2022-10-31T08:22:02;11.90;99.90
37408;DHT22;24866;50.248;8.252;2022-10-31T08:24:32;11.90;99.90
37408;DHT22;24866;50.248;8.252;2022-10-31T08:27:01;12.00;99.90
37408;DHT22;24866;50.248;8.252;2022-10-31T08:29:31;12.30;99.90
37408;DHT22;24866;50.248;8.252;2022-10-31T08:32:01;12.30;99.90
37408;DHT22;24866;50.248;8.252;2022-10-31T08:34:31;12.60;99.90
37408;DHT22;24866;50.248;8.252;2022-10-31T08:37:02;12.80;99.90
37408;DHT22;24866;50.248;8.252;2022-10-31T08:39:32;12.70;99.90
37408;DHT22;24866;50.248;8.252;2022-10-31T08:42:02;12.80;99.90
37408;DHT22;24866;50.248;8.252;2022-10-31T08:44:32;12.90;99.90
37408;DHT22;24866;50.248;8.252;2022-10-31T08:47:02;13.00;99.90
37408;DHT22;24866;50.248;8.252;2022-10-31T08:49:32;13.20;99.90
37408;DHT22;24866;50.248;8.252;2022-10-31T08:52:03;13.40;99.90
37408;DHT22;24866;50.248;8.252;2022-10-31T08:54:33;13.60;99.90
37408;DHT22;24866;50.248;8.252;2022-10-31T08:57:03;13.70;99.90
37408;DHT22;24866;50.248;8.252;2022-10-31T08:59:33;14.10;99.90
37408;DHT22;24866;50.248;8.252;2022-10-31T09:02:04;14.20;99.90
37408;DHT22;24866;50.248;8.252;2022-10-31T09:04:34;14.30;99.90
37408;DHT22;24866;50.248;8.252;2022-10-31T09:07:06;14.60;99.90
37408;DHT22;24866;50.248;8.252;2022-10-31T09:09:36;14.70;99.90
37408;DHT22;24866;50.248;8.252;2022-10-31T09:12:06;14.80;99.90
37408;DHT22;24866;50.248;8.252;2022-10-31T09:14:35;14.70;99.90
37408;DHT22;24866;50.248;8.252;2022-10-31T09:17:06;14.80;99.90
37408;DHT22;24866;50.248;8.252;2022-10-31T09:19:37;15.00;99.90
37408;DHT22;24866;50.248;8.252;2022-10-31T09:22:09;15.10;99.90
37408;DHT22;24866;50.248;8.252;2022-10-31T09:24:39;15.10;99.90
37408;DHT22;24866;50.248;8.252;2022-10-31T09:27:09;14.60;99.90
37408;DHT22;24866;50.248;8.252;2022-10-31T09:29:39;14.60;99.90
37408;DHT22;24866;50.248;8.252;2022-10-31T09:32:09;14.90;99.90
37408;DHT22;24866;50.248;8.252;2022-10-31T09:34:39;15.20;99.90
37408;DHT22;24866;50.248;8.252;2022-10-31T09:37:10;14.60;99.90
37408;DHT22;24866;50.248;8.252;2022-10-31T09:39:40;14.60;99.90
37408;DHT22;24866;50.248;8.252;2022-10-31T09:42:35;14.50;99.90
37408;DHT22;24866;50.248;8.252;2022-10-31T09:45:13;14.50;99.90
37408;DHT22;24866;50.248;8.252;2022-10-31T09:47:55;14.60;99.90
37408;DHT22;24866;50.248;8.252;2022-10-31T09:50:29;15.10;99.90
37408;DHT22;24866;50.248;8.252;2022-10-31T09:53:04;15.10;99.90
37408;DHT22;24866;50.248;8.252;2022-10-31T09:55:41;15.20;99.90
37408;DHT22;24866;50.248;8.252;2022-10-31T09:58:15;15.50;99.90
37408;DHT22;24866;50.248;8.252;2022-10-31T10:00:47;15.60;99.90
37408;DHT22;24866;50.248;8.252;2022-10-31T10:03:28;15.90;99.90
37408;DHT22;24866;50.248;8.252;2022-10-31T10:06:07;15.80;99.90
37408;DHT22;24866;50.248;8.252;2022-10-31T10:08:40;16.00;99.90
37408;DHT22;24866;50.248;8.252;2022-10-31T10:11:23;16.20;99.90
37408;DHT22;24866;50.248;8.252;2022-10-31T10:14:08;16.00;99.90
37408;DHT22;24866;50.248;8.252;2022-10-31T10:17:05;15.90;99.90
37408;DHT22;24866;50.248;8.252;2022-10-31T10:20:01;15.80;99.90
37408;DHT22;24866;50.248;8.252;2022-10-31T10:22:41;15.60;99.90
37408;DHT22;24866;50.248;8.252;2022-10-31T10:25:19;16.00;99.90
37408;DHT22;24866;50.248;8.252;2022-10-31T10:27:59;16.10;99.90
37408;DHT22;24866;50.248;8.252;2022-10-31T10:30:35;16.30;99.90
37408;DHT22;24866;50.248;8.252;2022-10-31T10:33:14;16.30;99.90
37408;DHT22;24866;50.248;8.252;2022-10-31T10:35:48;16.40;99.90
37408;DHT22;24866;50.248;8.252;2022-10-31T10:38:24;16.60;99.90
37408;DHT22;24866;50.248;8.252;2022-10-31T10:40:57;16.70;99.90
37408;DHT22;24866;50.248;8.252;2022-10-31T10:43:29;16.80;99.90
37408;DHT22;24866;50.248;8.252;2022-10-31T10:46:17;16.50;99.90
37408;DHT22;24866;50.248;8.252;2022-10-31T10:49:15;16.50;99.90
37408;DHT22;24866;50.248;8.252;2022-10-31T10:51:49;16.20;99.90
37408;DHT22;24866;50.248;8.252;2022-10-31T10:54:45;16.40;99.90
37408;DHT22;24866;50.248;8.252;2022-10-31T10:57:27;16.60;99.90
37408;DHT22;24866;50.248;8.252;2022-10-31T11:00:01;16.90;99.90
37408;DHT22;24866;50.248;8.252;2022-10-31T11:02:33;17.00;99.90
37408;DHT22;24866;50.248;8.252;2022-10-31T11:05:03;17.20;99.90
37408;DHT22;24866;50.248;8.252;2022-10-31T11:07:41;17.20;99.90
37408;DHT22;24866;50.248;8.252;2022-10-31T11:10:13;17.30;99.90
37408;DHT22;24866;50.248;8.252;2022-10-31T11:12:58;17.40;99.90
37408;DHT22;24866;50.248;8.252;2022-10-31T11:15:31;17.60;99.90
37408;DHT22;24866;50.248;8.252;2022-10-31T11:18:03;17.60;99.90
37408;DHT22;24866;50.248;8.252;2022-10-31T11:20:35;17.70;99.90
37408;DHT22;24866;50.248;8.252;2022-10-31T11:23:17;17.80;99.90
37408;DHT22;24866;50.248;8.252;2022-10-31T11:25:53;17.80;99.90
37408;DHT22;24866;50.248;8.252;2022-10-31T11:28:25;17.60;99.90
37408;DHT22;24866;50.248;8.252;2022-10-31T11:30:59;17.60;99.90
37408;DHT22;24866;50.248;8.252;2022-10-31T11:33:32;17.60;99.90
37408;DHT22;24866;50.248;8.252;2022-10-31T11:36:14;17.30;99.90
37408;DHT22;24866;50.248;8.252;2022-10-31T11:38:45;17.40;99.90
37408;DHT22;24866;50.248;8.252;2022-10-31T11:41:17;17.70;99.90
37408;DHT22;24866;50.248;8.252;2022-10-31T11:43:51;17.40;99.90
37408;DHT22;24866;50.248;8.252;2022-10-31T11:46:26;17.30;99.90
37408;DHT22;24866;50.248;8.252;2022-10-31T11:48:59;17.30;99.90
37408;DHT22;24866;50.248;8.252;2022-10-31T11:51:33;17.30;99.90
37408;DHT22;24866;50.248;8.252;2022-10-31T11:54:04;17.30;99.90
37408;DHT22;24866;50.248;8.252;2022-10-31T11:56:38;17.50;99.90
37408;DHT22;24866;50.248;8.252;2022-10-31T11:59:21;17.60;99.90
37408;DHT22;24866;50.248;8.252;2022-10-31T12:01:53;17.50;99.90
37408;DHT22;24866;50.248;8.252;2022-10-31T12:04:34;17.50;99.90
37408;DHT22;24866;50.248;8.252;2022-10-31T12:07:05;17.30;99.90
37408;DHT22;24866;50.248;8.252;2022-10-31T12:09:36;17.40;99.90
37408;DHT22;24866;50.248;8.252;2022-10-31T12:15:30;17.30;99.90
37408;DHT22;24866;50.248;8.252;2022-10-31T12:21:12;17.90;99.90
37408;DHT22;24866;50.248;8.252;2022-10-31T12:23:53;18.10;99.90
37408;DHT22;24866;50.248;8.252;2022-10-31T12:26:30;18.40;99.90
37408;DHT22;24866;50.248;8.252;2022-10-31T12:29:22;18.40;99.90
37408;DHT22;24866;50.248;8.252;2022-10-31T12:32:13;18.70;99.90
37408;DHT22;24866;50.248;8.252;2022-10-31T12:35:09;18.70;99.90
37408;DHT22;24866;50.248;8.252;2022-10-31T12:37:54;18.60;99.90
37408;DHT22;24866;50.248;8.252;2022-10-31T12:40:51;18.60;99.90
37408;DHT22;24866;50.248;8.252;2022-10-31T12:43:36;18.70;99.90
37408;DHT22;24866;50.248;8.252;2022-10-31T12:46:11;18.80;99.90
37408;DHT22;24866;50.248;8.252;2022-10-31T12:51:42;19.10;99.90
37408;DHT22;24866;50.248;8.252;2022-10-31T12:54:36;19.30;99.90
37408;DHT22;24866;50.248;8.252;2022-10-31T12:57:14;19.40;99.90
37408;DHT22;24866;50.248;8.252;2022-10-31T12:59:50;19.50;99.90
37408;DHT22;24866;50.248;8.252;2022-10-31T13:02:24;19.50;99.90
37408;DHT22;24866;50.248;8.252;2022-10-31T13:05:01;19.20;99.90
37408;DHT22;24866;50.248;8.252;2022-10-31T13:07:36;19.40;99.90
37408;DHT22;24866;50.248;8.252;2022-10-31T13:10:13;19.40;99.90
37408;DHT22;24866;50.248;8.252;2022-10-31T13:12:48;19.40;99.90
37408;DHT22;24866;50.248;8.252;2022-10-31T13:15:22;19.50;99.90
37408;DHT22;24866;50.248;8.252;2022-10-31T13:17:55;19.50;99.90
37408;DHT22;24866;50.248;8.252;2022-10-31T13:20:29;19.60;99.90
37408;DHT22;24866;50.248;8.252;2022-10-31T13:23:05;19.40;99.90
37408;DHT22;24866;50.248;8.252;2022-10-31T13:25:42;19.50;99.90
37408;DHT22;24866;50.248;8.252;2022-10-31T13:28:24;19.10;99.90
37408;DHT22;24866;50.248;8.252;2022-10-31T13:30:56;19.10;99.90
37408;DHT22;24866;50.248;8.252;2022-10-31T13:33:29;19.10;99.90
37408;DHT22;24866;50.248;8.252;2022-10-31T13:36:11;19.10;99.90
37408;DHT22;24866;50.248;8.252;2022-10-31T13:38:46;19.00;99.90
37408;DHT22;24866;50.248;8.252;2022-10-31T13:41:27;19.00;99.90
37408;DHT22;24866;50.248;8.252;2022-10-31T13:44:12;19.00;99.90
37408;DHT22;24866;50.248;8.252;2022-10-31T13:46:43;18.90;99.90
37408;DHT22;24866;50.248;8.252;2022-10-31T13:49:26;18.70;99.90
37408;DHT22;24866;50.248;8.252;2022-10-31T13:52:06;18.70;99.90
37408;DHT22;24866;50.248;8.252;2022-10-31T13:54:43;18.80;99.90
37408;DHT22;24866;50.248;8.252;2022-10-31T13:57:17;18.90;99.90
37408;DHT22;24866;50.248;8.252;2022-10-31T13:59:50;18.90;99.90
37408;DHT22;24866;50.248;8.252;2022-10-31T14:02:25;18.70;99.90
37408;DHT22;24866;50.248;8.252;2022-10-31T14:04:59;18.60;99.90
37408;DHT22;24866;50.248;8.252;2022-10-31T14:07:31;18.40;99.90
37408;DHT22;24866;50.248;8.252;2022-10-31T14:10:04;18.40;99.90
37408;DHT22;24866;50.248;8.252;2022-10-31T14:12:37;18.40;99.90
37408;DHT22;24866;50.248;8.252;2022-10-31T14:15:15;18.40;99.90
37408;DHT22;24866;50.248;8.252;2022-10-31T14:17:47;18.40;99.90
37408;DHT22;24866;50.248;8.252;2022-10-31T14:20:26;18.40;99.90
37408;DHT22;24866;50.248;8.252;2022-10-31T14:23:33;18.40;99.90
37408;DHT22;24866;50.248;8.252;2022-10-31T14:26:19;18.30;99.90
37408;DHT22;24866;50.248;8.252;2022-10-31T14:28:51;18.10;99.90
37408;DHT22;24866;50.248;8.252;2022-10-31T14:31:35;17.90;99.90
37408;DHT22;24866;50.248;8.252;2022-10-31T14:34:19;18.00;99.90
37408;DHT22;24866;50.248;8.252;2022-10-31T14:36:59;18.00;99.90
37408;DHT22;24866;50.248;8.252;2022-10-31T14:39:37;17.90;99.90
37408;DHT22;24866;50.248;8.252;2022-10-31T14:42:20;18.00;99.90
37408;DHT22;24866;50.248;8.252;2022-10-31T14:47:52;18.00;99.90
37408;DHT22;24866;50.248;8.252;2022-10-31T14:50:51;18.10;99.90
37408;DHT22;24866;50.248;8.252;2022-10-31T14:53:24;18.20;99.90
37408;DHT22;24866;50.248;8.252;2022-10-31T14:55:57;18.20;99.90
37408;DHT22;24866;50.248;8.252;2022-10-31T14:58:33;18.10;99.90
37408;DHT22;24866;50.248;8.252;2022-10-31T15:01:05;18.00;99.90
37408;DHT22;24866;50.248;8.252;2022-10-31T15:03:39;17.90;99.90
37408;DHT22;24866;50.248;8.252;2022-10-31T15:06:11;18.00;99.90
37408;DHT22;24866;50.248;8.252;2022-10-31T15:08:45;18.00;99.90
37408;DHT22;24866;50.248;8.252;2022-10-31T15:11:18;17.90;99.90
37408;DHT22;24866;50.248;8.252;2022-10-31T15:13:49;17.90;99.90
37408;DHT22;24866;50.248;8.252;2022-10-31T15:16:21;17.80;99.90
37408;DHT22;24866;50.248;8.252;2022-10-31T15:18:54;17.80;99.90
37408;DHT22;24866;50.248;8.252;2022-10-31T15:21:25;17.70;99.90
37408;DHT22;24866;50.248;8.252;2022-10-31T15:23:59;17.60;99.90
37408;DHT22;24866;50.248;8.252;2022-10-31T15:26:34;17.60;99.90
37408;DHT22;24866;50.248;8.252;2022-10-31T15:29:13;17.50;99.90
37408;DHT22;24866;50.248;8.252;2022-10-31T15:31:50;17.50;99.90
37408;DHT22;24866;50.248;8.252;2022-10-31T15:34:24;17.40;99.90
37408;DHT22;24866;50.248;8.252;2022-10-31T15:36:56;17.30;99.90
37408;DHT22;24866;50.248;8.252;2022-10-31T15:39:26;17.30;99.90
37408;DHT22;24866;50.248;8.252;2022-10-31T15:41:58;17.20;99.90
37408;DHT22;24866;50.248;8.252;2022-10-31T15:44:33;17.10;99.90
37408;DHT22;24866;50.248;8.252;2022-10-31T15:47:13;17.10;99.90
37408;DHT22;24866;50.248;8.252;2022-10-31T15:49:48;17.10;99.90
37408;DHT22;24866;50.248;8.252;2022-10-31T15:52:27;17.10;99.90
37408;DHT22;24866;50.248;8.252;2022-10-31T15:54:59;17.10;99.90
37408;DHT22;24866;50.248;8.252;2022-10-31T15:57:32;17.10;99.90
37408;DHT22;24866;50.248;8.252;2022-10-31T16:00:02;17.10;99.90
37408;DHT22;24866;50.248;8.252;2022-10-31T16:02:32;17.10;99.90
37408;DHT22;24866;50.248;8.252;2022-10-31T16:05:15;17.10;99.90
37408;DHT22;24866;50.248;8.252;2022-10-31T16:07:48;17.10;99.90
37408;DHT22;24866;50.248;8.252;2022-10-31T16:10:22;17.00;99.90
37408;DHT22;24866;50.248;8.252;2022-10-31T16:12:55;16.90;99.90
37408;DHT22;24866;50.248;8.252;2022-10-31T16:15:25;16.90;99.90
37408;DHT22;24866;50.248;8.252;2022-10-31T16:17:54;16.80;99.90
37408;DHT22;24866;50.248;8.252;2022-10-31T16:20:26;16.70;99.90
37408;DHT22;24866;50.248;8.252;2022-10-31T16:22:57;16.80;99.90
37408;DHT22;24866;50.248;8.252;2022-10-31T16:25:33;16.70;99.90